Time;durP1;ratioP1;P1;durP2;ratioP2;P2;SDS_P1;SDS_P2;PMS_P1;PMS_P2;Temp;Humidity;BMP_temperature;BMP_pressure;BME280_temperature;BME280_humidity;BME280_pressure;Samples;Min_cycle;Max_cycle;Signal;HPM_P1;HPM_P2
2022/03/11 00:01:59;;;;;;;0.30;0.30;;;3.10;61.70;;;;;;5051760;28;20283;-66
2022/03/11 00:04:24;;;;;;;0.30;0.30;;;3.10;61.30;;;;;;5053292;28;20184;-67
2022/03/11 00:06:50;;;;;;;0.30;0.30;;;3.20;60.90;;;;;;5052138;28;20221;-66
2022/03/11 00:09:16;;;;;;;0.40;0.40;;;3.20;62.10;;;;;;5053260;28;20174;-67
2022/03/11 00:11:42;;;;;;;0.30;0.30;;;3.10;62.40;;;;;;5052991;28;20167;-67
2022/03/11 00:14:07;;;;;;;0.40;0.40;;;3.10;62.70;;;;;;5052930;28;20210;-67
2022/03/11 00:16:34;;;;;;;1.60;1.50;;;3.10;63.00;;;;;;5053210;28;20170;-67
2022/03/11 00:18:59;;;;;;;0.40;0.40;;;3.10;63.40;;;;;;5053293;28;20167;-69
2022/03/11 00:21:25;;;;;;;0.37;0.37;;;3.00;64.10;;;;;;5052874;28;20194;-66
2022/03/11 00:23:51;;;;;;;0.30;0.30;;;2.90;64.20;;;;;;5053213;28;20638;-67
2022/03/11 00:26:16;;;;;;;0.30;0.30;;;2.90;63.90;;;;;;5053051;28;20249;-68
2022/03/11 00:28:42;;;;;;;0.40;0.40;;;2.80;64.60;;;;;;5053216;28;20273;-67
2022/03/11 00:31:08;;;;;;;0.40;0.40;;;2.80;65.10;;;;;;5052901;28;20531;-67
2022/03/11 00:33:34;;;;;;;0.30;0.30;;;2.90;65.50;;;;;;5053008;28;20170;-67
2022/03/11 00:36:00;;;;;;;0.40;0.40;;;2.90;65.80;;;;;;5052980;28;20436;-67
2022/03/11 00:38:25;;;;;;;0.40;0.40;;;2.90;65.70;;;;;;5053062;28;20263;-66
2022/03/11 00:40:56;;;;;;;0.30;0.30;;;2.90;65.80;;;;;;5052871;28;20449;-66
2022/03/11 00:43:23;;;;;;;0.40;0.40;;;2.90;66.20;;;;;;5053207;28;20168;-67
2022/03/11 00:45:49;;;;;;;0.40;0.40;;;2.80;66.40;;;;;;5052833;28;20190;-67
2022/03/11 00:48:14;;;;;;;0.40;0.40;;;2.80;66.30;;;;;;5053627;28;20181;-67
2022/03/11 00:50:40;;;;;;;0.30;0.30;;;2.80;66.40;;;;;;5056615;28;20264;-68
2022/03/11 00:53:06;;;;;;;0.30;0.30;;;2.90;66.50;;;;;;5057318;28;20213;-70
2022/03/11 00:55:31;;;;;;;0.30;0.30;;;2.80;66.40;;;;;;5056780;28;20204;-67
2022/03/11 00:57:57;;;;;;;0.40;0.40;;;2.80;66.70;;;;;;5056733;28;20258;-66
2022/03/11 01:00:24;;;;;;;0.30;0.30;;;2.70;66.80;;;;;;5056104;28;20400;-68
2022/03/11 01:02:49;;;;;;;0.30;0.30;;;2.80;67.20;;;;;;5056689;28;20600;-66
2022/03/11 01:05:15;;;;;;;0.30;0.30;;;2.80;67.40;;;;;;5056289;28;20238;-67
2022/03/11 01:07:41;;;;;;;0.30;0.30;;;2.80;67.80;;;;;;5056276;28;20400;-67
2022/03/11 01:10:08;;;;;;;0.30;0.30;;;2.70;67.80;;;;;;5056119;28;20401;-67
2022/03/11 01:12:35;;;;;;;0.30;0.30;;;2.70;67.70;;;;;;5056214;28;20487;-67
2022/03/11 01:15:00;;;;;;;0.40;0.40;;;2.70;67.60;;;;;;5056173;28;20209;-67
2022/03/11 01:17:26;;;;;;;0.40;0.40;;;2.70;68.10;;;;;;5056310;28;20222;-68
2022/03/11 01:19:53;;;;;;;0.32;0.32;;;2.70;68.90;;;;;;5056653;28;20409;-67
2022/03/11 01:22:18;;;;;;;0.30;0.30;;;2.60;70.40;;;;;;5056222;28;20198;-69
2022/03/11 01:24:44;;;;;;;0.40;0.40;;;2.60;69.70;;;;;;5055967;28;20580;-67
2022/03/11 01:27:10;;;;;;;0.30;0.30;;;2.60;69.10;;;;;;5055971;28;20217;-67
2022/03/11 01:29:35;;;;;;;0.30;0.30;;;2.70;68.40;;;;;;5056005;28;20166;-66
2022/03/11 01:32:01;;;;;;;0.30;0.30;;;2.60;67.20;;;;;;5055831;28;20531;-67
2022/03/11 01:34:27;;;;;;;0.30;0.30;;;2.70;67.00;;;;;;5055944;28;20262;-70
2022/03/11 01:36:52;;;;;;;0.50;0.50;;;2.70;66.40;;;;;;5055755;28;20659;-67
2022/03/11 01:39:18;;;;;;;0.33;0.33;;;2.70;66.30;;;;;;5055735;28;20229;-67
2022/03/11 01:41:44;;;;;;;0.30;0.30;;;2.70;66.90;;;;;;5055440;28;20203;-67
2022/03/11 01:44:10;;;;;;;1.33;1.33;;;2.50;68.10;;;;;;5055561;28;20215;-67
2022/03/11 01:46:37;;;;;;;0.30;0.30;;;2.40;69.90;;;;;;5055722;28;20168;-67
2022/03/11 01:49:05;;;;;;;0.40;0.40;;;2.40;70.70;;;;;;5055570;28;20224;-67
2022/03/11 01:51:33;;;;;;;0.30;0.30;;;2.40;71.60;;;;;;5055285;28;20563;-67
2022/03/11 01:53:59;;;;;;;0.40;0.40;;;2.40;72.10;;;;;;5054122;28;20205;-66
2022/03/11 01:56:25;;;;;;;0.40;0.40;;;2.40;72.10;;;;;;5054120;28;20178;-67
2022/03/11 01:58:53;;;;;;;0.30;0.30;;;2.50;72.30;;;;;;5055412;28;20538;-66
2022/03/11 02:01:20;;;;;;;0.40;0.40;;;2.50;72.50;;;;;;5054935;28;20199;-66
2022/03/11 02:03:46;;;;;;;0.40;0.40;;;2.40;72.00;;;;;;5055292;28;20198;-67
2022/03/11 02:06:13;;;;;;;0.40;0.40;;;2.50;71.60;;;;;;5055177;28;20163;-67
2022/03/11 02:08:39;;;;;;;0.40;0.40;;;2.40;70.90;;;;;;5055206;28;20166;-67
2022/03/11 02:11:06;;;;;;;0.30;0.30;;;2.40;71.40;;;;;;5055038;28;20178;-67
2022/03/11 02:13:45;;;;;;;0.30;0.30;;;2.30;71.80;;;;;;5055083;28;20166;-67
2022/03/11 02:16:22;;;;;;;0.82;0.82;;;2.30;72.10;;;;;;5055006;28;20174;-66
2022/03/11 02:18:48;;;;;;;1.65;1.55;;;2.00;71.00;;;;;;5055164;28;20185;-67
2022/03/11 02:21:16;;;;;;;0.40;0.40;;;1.90;70.80;;;;;;5054619;28;20381;-67
2022/03/11 02:23:50;;;;;;;0.40;0.40;;;2.00;71.40;;;;;;5054893;28;20167;-66
2022/03/11 02:26:17;;;;;;;0.40;0.40;;;2.10;71.50;;;;;;5054873;28;20169;-67
2022/03/11 02:28:44;;;;;;;0.30;0.30;;;2.20;72.30;;;;;;5054942;28;20174;-67
2022/03/11 02:31:10;;;;;;;0.40;0.40;;;2.20;72.50;;;;;;5054515;28;20590;-66
2022/03/11 02:33:36;;;;;;;0.30;0.30;;;2.20;72.70;;;;;;5054804;28;20174;-66
2022/03/11 02:36:02;;;;;;;0.40;0.40;;;2.20;73.20;;;;;;5054629;28;20465;-66
2022/03/11 02:38:27;;;;;;;0.40;0.40;;;2.20;73.10;;;;;;5054798;28;20540;-66
2022/03/11 02:40:54;;;;;;;0.40;0.40;;;2.20;72.40;;;;;;5054316;28;20251;-67
2022/03/11 02:43:19;;;;;;;0.30;0.30;;;2.20;71.60;;;;;;5055051;28;20172;-67
2022/03/11 02:45:45;;;;;;;0.30;0.30;;;2.20;71.40;;;;;;5054346;28;20261;-67
2022/03/11 02:48:11;;;;;;;0.40;0.40;;;2.30;70.40;;;;;;5054786;28;20934;-67
2022/03/11 02:50:37;;;;;;;0.30;0.30;;;2.30;70.40;;;;;;5054138;28;20407;-68
2022/03/11 02:53:03;;;;;;;0.30;0.30;;;2.40;71.20;;;;;;5054472;28;20280;-67
2022/03/11 02:55:28;;;;;;;0.40;0.40;;;2.40;72.20;;;;;;5054247;28;20420;-67
2022/03/11 02:57:54;;;;;;;0.30;0.30;;;2.30;72.50;;;;;;5054453;28;20194;-67
2022/03/11 03:00:20;;;;;;;0.40;0.40;;;2.30;72.60;;;;;;5053720;28;20224;-68
2022/03/11 03:02:45;;;;;;;0.40;0.40;;;2.20;73.50;;;;;;5054396;28;20177;-67
2022/03/11 03:05:13;;;;;;;0.30;0.30;;;2.20;74.00;;;;;;5054024;28;20504;-68
2022/03/11 03:07:39;;;;;;;0.40;0.40;;;2.20;74.60;;;;;;5054046;28;20527;-68
2022/03/11 03:10:06;;;;;;;0.40;0.40;;;2.20;74.50;;;;;;5053449;28;20174;-68
2022/03/11 03:12:31;;;;;;;0.40;0.40;;;2.20;74.30;;;;;;5053994;28;20424;-68
2022/03/11 03:14:57;;;;;;;0.30;0.30;;;2.30;73.80;;;;;;5053835;28;20194;-68
2022/03/11 03:17:23;;;;;;;0.40;0.40;;;2.30;73.70;;;;;;5054127;28;20518;-67
2022/03/11 03:19:49;;;;;;;2.20;1.07;;;2.30;74.00;;;;;;5053844;28;20177;-68
2022/03/11 03:22:15;;;;;;;0.30;0.30;;;2.30;74.30;;;;;;5053703;28;20281;-67
2022/03/11 03:24:42;;;;;;;0.30;0.30;;;2.20;74.70;;;;;;5053683;28;20567;-67
2022/03/11 03:27:08;;;;;;;0.40;0.40;;;2.20;74.90;;;;;;5053675;28;20174;-67
2022/03/11 03:29:34;;;;;;;0.30;0.30;;;2.20;74.60;;;;;;5053701;28;20177;-68
2022/03/11 03:31:59;;;;;;;0.30;0.30;;;2.20;74.50;;;;;;5053525;28;20408;-68
2022/03/11 03:34:31;;;;;;;0.30;0.30;;;2.20;74.80;;;;;;5053617;28;20217;-68
2022/03/11 03:36:57;;;;;;;0.30;0.30;;;2.20;75.10;;;;;;5053689;28;20162;-68
2022/03/11 03:39:26;;;;;;;0.30;0.30;;;2.20;75.10;;;;;;5053672;28;20628;-68
2022/03/11 03:41:52;;;;;;;0.50;0.50;;;2.30;74.70;;;;;;5053234;28;20233;-68
2022/03/11 03:44:18;;;;;;;0.30;0.30;;;2.30;74.40;;;;;;5053660;28;20609;-68
2022/03/11 03:46:44;;;;;;;0.80;0.80;;;2.20;74.40;;;;;;5053482;28;20193;-67
2022/03/11 03:49:09;;;;;;;0.40;0.40;;;2.20;74.40;;;;;;5053484;28;20200;-68
2022/03/11 03:51:38;;;;;;;0.40;0.40;;;2.20;74.20;;;;;;5053351;28;20170;-67
2022/03/11 03:54:04;;;;;;;0.40;0.40;;;2.20;74.20;;;;;;5052184;28;20606;-67
2022/03/11 03:56:30;;;;;;;0.30;0.30;;;2.20;74.70;;;;;;5053294;28;20228;-68
2022/03/11 03:58:55;;;;;;;0.40;0.40;;;2.20;75.40;;;;;;5053499;28;20174;-68
2022/03/11 04:01:21;;;;;;;0.30;0.30;;;2.10;75.80;;;;;;5053014;28;20202;-67
2022/03/11 04:03:46;;;;;;;0.30;0.30;;;2.10;74.50;;;;;;5053395;28;20239;-67
2022/03/11 04:06:12;;;;;;;0.30;0.30;;;2.10;73.70;;;;;;5053291;28;20563;-68
2022/03/11 04:08:38;;;;;;;0.40;0.40;;;2.10;73.60;;;;;;5053335;28;20166;-67
2022/03/11 04:11:03;;;;;;;0.30;0.30;;;2.10;74.00;;;;;;5053231;28;20224;-67
2022/03/11 04:13:29;;;;;;;0.30;0.30;;;2.10;74.40;;;;;;5053154;28;20170;-68
2022/03/11 04:15:55;;;;;;;0.37;0.37;;;2.10;74.50;;;;;;5053230;28;20174;-67
2022/03/11 04:18:21;;;;;;;0.40;0.40;;;2.10;74.40;;;;;;5053402;28;20174;-67
2022/03/11 04:20:47;;;;;;;0.40;0.40;;;2.10;73.90;;;;;;5053045;28;20189;-68
2022/03/11 04:23:12;;;;;;;0.60;0.60;;;2.10;72.40;;;;;;5055273;28;20569;-68
2022/03/11 04:25:38;;;;;;;0.30;0.30;;;2.10;72.50;;;;;;5057046;28;20194;-67
2022/03/11 04:28:04;;;;;;;0.40;0.40;;;2.20;73.70;;;;;;5057058;28;20662;-68
2022/03/11 04:30:29;;;;;;;0.53;0.53;;;2.10;73.60;;;;;;5057318;28;20166;-69
2022/03/11 04:32:55;;;;;;;0.40;0.40;;;2.10;73.90;;;;;;5057433;28;20428;-68
2022/03/11 04:35:21;;;;;;;0.30;0.30;;;2.00;74.30;;;;;;5056975;28;20289;-68
2022/03/11 04:37:46;;;;;;;0.30;0.30;;;2.00;74.80;;;;;;5057176;28;20170;-68
2022/03/11 04:40:12;;;;;;;0.30;0.30;;;1.90;74.50;;;;;;5056924;28;20707;-68
2022/03/11 04:42:38;;;;;;;0.30;0.30;;;2.00;73.80;;;;;;5057197;28;20288;-68
2022/03/11 04:45:04;;;;;;;0.40;0.40;;;2.00;74.00;;;;;;5056836;28;20186;-68
2022/03/11 04:47:30;;;;;;;0.40;0.40;;;2.00;73.70;;;;;;5057151;28;20170;-68
2022/03/11 04:49:56;;;;;;;0.30;0.30;;;2.10;73.90;;;;;;5056690;28;20534;-67
2022/03/11 04:52:21;;;;;;;0.30;0.30;;;2.10;73.90;;;;;;5056877;28;20439;-67
2022/03/11 04:54:47;;;;;;;0.40;0.40;;;2.00;73.70;;;;;;5057249;28;20213;-68
2022/03/11 04:57:13;;;;;;;0.30;0.30;;;2.00;73.70;;;;;;5056606;28;20472;-68
2022/03/11 04:59:38;;;;;;;0.40;0.40;;;2.00;74.00;;;;;;5056603;28;20170;-68
2022/03/11 05:02:04;;;;;;;0.40;0.40;;;1.90;74.70;;;;;;5056255;28;20208;-68
2022/03/11 05:04:30;;;;;;;0.40;0.40;;;1.90;76.20;;;;;;5056380;28;20193;-68
2022/03/11 05:06:55;;;;;;;0.30;0.30;;;1.90;77.20;;;;;;5056426;28;20603;-68
2022/03/11 05:09:21;;;;;;;0.40;0.40;;;1.90;77.50;;;;;;5056531;28;20580;-68
2022/03/11 05:11:46;;;;;;;0.40;0.40;;;1.90;77.90;;;;;;5056159;28;20674;-68
2022/03/11 05:14:12;;;;;;;0.40;0.40;;;1.80;77.70;;;;;;5056159;28;20742;-69
2022/03/11 05:16:38;;;;;;;0.40;0.40;;;1.80;77.50;;;;;;5056326;28;20177;-68
2022/03/11 05:19:03;;;;;;;0.40;0.40;;;1.80;77.50;;;;;;5056372;28;20176;-67
2022/03/11 05:21:29;;;;;;;2.50;2.40;;;1.80;77.40;;;;;;5055884;28;20193;-69
2022/03/11 05:23:55;;;;;;;0.40;0.40;;;1.90;77.20;;;;;;5056164;28;20552;-67
2022/03/11 05:26:28;;;;;;;0.40;0.40;;;2.00;76.70;;;;;;5054805;28;20174;-69
2022/03/11 05:28:55;;;;;;;0.40;0.40;;;2.00;76.30;;;;;;5056205;28;20162;-68
2022/03/11 05:31:22;;;;;;;0.50;0.50;;;2.00;76.20;;;;;;5054586;28;20699;-68
2022/03/11 05:33:50;;;;;;;0.40;0.40;;;1.80;76.50;;;;;;5055527;28;20210;-68
2022/03/11 05:36:17;;;;;;;0.40;0.40;;;1.70;77.40;;;;;;5055780;28;20547;-68
2022/03/11 05:38:42;;;;;;;0.30;0.30;;;1.80;77.60;;;;;;5055801;28;20182;-68
2022/03/11 05:41:09;;;;;;;0.40;0.40;;;1.80;77.40;;;;;;5055545;28;20193;-67
2022/03/11 05:43:36;;;;;;;0.35;0.35;;;1.80;78.30;;;;;;5055767;28;20173;-68
2022/03/11 05:46:02;;;;;;;0.32;0.32;;;1.70;78.50;;;;;;5055677;28;20174;-68
2022/03/11 05:48:28;;;;;;;0.30;0.30;;;1.70;79.30;;;;;;5055763;28;20253;-67
2022/03/11 05:50:53;;;;;;;0.30;0.30;;;1.70;79.40;;;;;;5055444;28;20304;-68
2022/03/11 05:53:19;;;;;;;0.40;0.40;;;1.80;78.90;;;;;;5055741;28;20284;-68
2022/03/11 05:55:44;;;;;;;0.40;0.40;;;1.90;78.80;;;;;;5055401;28;20190;-67
2022/03/11 05:58:10;;;;;;;0.40;0.40;;;2.00;77.90;;;;;;5055633;28;20499;-68
2022/03/11 06:00:36;;;;;;;0.40;0.40;;;2.00;77.50;;;;;;5055124;28;20186;-68
2022/03/11 06:03:01;;;;;;;0.50;0.50;;;2.00;76.80;;;;;;5055574;28;20628;-67
2022/03/11 06:05:27;;;;;;;0.40;0.40;;;2.00;76.30;;;;;;5055404;28;20194;-67
2022/03/11 06:07:52;;;;;;;0.37;0.37;;;2.00;75.50;;;;;;5055251;28;20178;-67
2022/03/11 06:10:18;;;;;;;0.40;0.40;;;2.20;75.70;;;;;;5055044;28;20174;-67
2022/03/11 06:12:44;;;;;;;0.40;0.40;;;2.40;75.20;;;;;;5055244;28;20204;-69
2022/03/11 06:15:14;;;;;;;0.30;0.30;;;2.50;74.80;;;;;;5055059;28;20187;-67
2022/03/11 06:17:41;;;;;;;0.40;0.40;;;2.50;74.60;;;;;;5055343;28;20173;-68
2022/03/11 06:20:08;;;;;;;0.30;0.30;;;2.50;73.70;;;;;;5055029;28;20178;-68
2022/03/11 06:22:36;;;;;;;0.30;0.30;;;2.50;73.40;;;;;;5054941;28;20202;-68
2022/03/11 06:25:02;;;;;;;0.30;0.30;;;2.50;74.40;;;;;;5054839;28;20216;-68
2022/03/11 06:27:28;;;;;;;0.40;0.40;;;2.50;75.10;;;;;;5054989;28;20652;-68
2022/03/11 06:29:54;;;;;;;0.40;0.40;;;2.50;74.70;;;;;;5053506;28;20312;-68
2022/03/11 06:32:20;;;;;;;0.30;0.30;;;2.70;74.60;;;;;;5055012;28;20202;-68
2022/03/11 06:34:48;;;;;;;0.40;0.40;;;2.80;74.00;;;;;;5054721;28;20652;-68
2022/03/11 06:37:14;;;;;;;0.32;0.32;;;2.90;73.60;;;;;;5054695;28;20447;-68
2022/03/11 06:39:40;;;;;;;0.30;0.30;;;3.00;73.60;;;;;;5054894;28;20539;-68
2022/03/11 06:42:05;;;;;;;0.50;0.50;;;3.00;73.90;;;;;;5054319;28;20281;-68
2022/03/11 06:44:31;;;;;;;0.30;0.30;;;2.90;74.00;;;;;;5054308;28;20190;-67
2022/03/11 06:46:57;;;;;;;0.30;0.30;;;2.90;73.80;;;;;;5053957;28;20178;-67
2022/03/11 06:49:23;;;;;;;0.40;0.40;;;2.90;73.80;;;;;;5054423;28;20412;-69
2022/03/11 06:51:51;;;;;;;0.30;0.30;;;2.90;73.60;;;;;;5054235;28;20174;-67
2022/03/11 06:54:17;;;;;;;0.30;0.30;;;3.10;74.00;;;;;;5054618;28;20191;-68
2022/03/11 06:56:42;;;;;;;0.40;0.40;;;3.30;73.40;;;;;;5054437;28;20174;-68
2022/03/11 06:59:08;;;;;;;0.40;0.40;;;3.40;72.80;;;;;;5054415;28;20201;-67
2022/03/11 07:01:34;;;;;;;0.50;0.50;;;3.40;72.40;;;;;;5053843;28;20217;-68
2022/03/11 07:04:01;;;;;;;0.40;0.40;;;3.30;72.40;;;;;;5054370;28;20186;-67
2022/03/11 07:06:27;;;;;;;0.40;0.40;;;3.30;72.50;;;;;;5054124;28;20163;-67
2022/03/11 07:08:52;;;;;;;0.40;0.40;;;3.40;72.20;;;;;;5054158;28;20227;-68
2022/03/11 07:11:18;;;;;;;0.30;0.30;;;3.60;72.20;;;;;;5053982;28;20180;-68
2022/03/11 07:13:44;;;;;;;0.40;0.40;;;3.90;69.60;;;;;;5054095;28;20625;-67
2022/03/11 07:16:10;;;;;;;0.30;0.30;;;4.50;68.00;;;;;;5053908;28;20671;-68
2022/03/11 07:18:36;;;;;;;0.40;0.40;;;5.20;64.90;;;;;;5053903;28;20405;-67
2022/03/11 07:21:01;;;;;;;0.30;0.30;;;6.10;63.50;;;;;;5053694;28;20204;-68
2022/03/11 07:23:29;;;;;;;0.30;0.30;;;7.40;59.40;;;;;;5053892;28;20393;-68
2022/03/11 07:25:54;;;;;;;0.40;0.40;;;8.70;55.40;;;;;;5053795;28;20403;-68
2022/03/11 07:28:20;;;;;;;0.67;0.67;;;9.70;52.30;;;;;;5053933;28;20597;-67
2022/03/11 07:30:46;;;;;;;0.30;0.30;;;10.50;49.50;;;;;;5053631;28;20226;-68
2022/03/11 07:33:12;;;;;;;6.80;4.10;;;11.40;47.10;;;;;;5053656;28;20631;-68
2022/03/11 07:35:38;;;;;;;0.97;0.87;;;11.80;44.70;;;;;;5052298;28;20444;-69
2022/03/11 07:38:05;;;;;;;1.85;1.75;;;11.80;43.80;;;;;;5053806;28;20424;-69
2022/03/11 07:40:31;;;;;;;0.77;0.77;;;11.80;44.40;;;;;;5053406;28;20171;-68
2022/03/11 07:42:57;;;;;;;0.30;0.30;;;12.60;43.50;;;;;;5053702;28;20546;-68
2022/03/11 07:45:23;;;;;;;0.30;0.30;;;13.30;42.60;;;;;;5053396;28;20499;-68
2022/03/11 07:47:48;;;;;;;0.70;0.70;;;14.20;41.70;;;;;;5053482;28;20166;-68
2022/03/11 07:50:14;;;;;;;0.30;0.30;;;15.10;39.50;;;;;;5053475;28;20427;-68
2022/03/11 07:52:40;;;;;;;0.30;0.30;;;14.80;37.80;;;;;;5053513;28;20201;-69
2022/03/11 07:55:08;;;;;;;0.40;0.40;;;14.30;39.20;;;;;;5053318;28;20201;-68
2022/03/11 07:57:36;;;;;;;0.30;0.30;;;14.20;40.40;;;;;;5053337;28;20492;-67
2022/03/11 08:00:04;;;;;;;0.30;0.30;;;14.90;39.60;;;;;;5053311;28;20261;-68
2022/03/11 08:02:30;;;;;;;0.40;0.40;;;16.00;38.20;;;;;;5053435;28;20492;-68
2022/03/11 08:04:57;;;;;;;0.40;0.40;;;16.30;36.10;;;;;;5053160;28;20456;-68
2022/03/11 08:07:23;;;;;;;0.40;0.40;;;16.80;35.90;;;;;;5053474;28;20923;-68
2022/03/11 08:09:48;;;;;;;0.30;0.30;;;17.20;35.40;;;;;;5053298;28;20408;-69
2022/03/11 08:12:14;;;;;;;1.23;0.57;;;18.30;33.70;;;;;;5053193;28;20466;-69
2022/03/11 08:14:40;;;;;;;0.40;0.40;;;19.20;31.40;;;;;;5053220;28;20424;-69
2022/03/11 08:17:06;;;;;;;0.37;0.37;;;19.60;30.40;;;;;;5053183;28;20204;-69
2022/03/11 08:19:32;;;;;;;0.30;0.30;;;20.00;30.90;;;;;;5053208;28;20591;-68
2022/03/11 08:21:58;;;;;;;0.30;0.30;;;20.00;29.50;;;;;;5052978;28;20501;-68
2022/03/11 08:24:24;;;;;;;0.40;0.40;;;19.70;28.80;;;;;;5053172;28;20417;-69
2022/03/11 08:26:50;;;;;;;0.40;0.40;;;20.00;28.80;;;;;;5053105;28;20420;-68
2022/03/11 08:29:17;;;;;;;0.87;0.87;;;20.40;28.70;;;;;;5053236;28;20204;-69
2022/03/11 08:31:44;;;;;;;0.30;0.30;;;21.20;28.00;;;;;;5053030;28;20397;-69
2022/03/11 08:34:10;;;;;;;0.90;0.90;;;22.20;27.70;;;;;;5052939;28;20432;-69
2022/03/11 08:36:36;;;;;;;0.80;0.70;;;22.90;28.20;;;;;;5053056;28;20778;-69
2022/03/11 08:39:02;;;;;;;0.40;0.40;;;22.50;27.20;;;;;;5053109;28;20747;-67
2022/03/11 08:41:30;;;;;;;0.40;0.40;;;21.50;27.50;;;;;;5051456;28;21024;-68
2022/03/11 08:43:56;;;;;;;0.87;0.87;;;21.90;27.40;;;;;;5053025;28;20420;-69
2022/03/11 08:46:21;;;;;;;1.63;1.53;;;22.60;26.60;;;;;;5052926;28;20454;-69
2022/03/11 08:48:47;;;;;;;1.73;1.57;;;22.90;26.10;;;;;;5052917;28;20176;-69
2022/03/11 08:51:13;;;;;;;0.50;0.50;;;23.40;26.50;;;;;;5053090;28;20615;-69
2022/03/11 08:53:39;;;;;;;0.40;0.40;;;23.50;26.70;;;;;;5052934;28;20417;-69
2022/03/11 08:56:05;;;;;;;1.13;1.13;;;23.30;26.50;;;;;;5052846;28;20407;-68
2022/03/11 08:58:31;;;;;;;0.90;0.90;;;23.70;25.70;;;;;;5052706;28;20465;-69
2022/03/11 09:00:56;;;;;;;0.40;0.40;;;23.80;26.00;;;;;;5052486;28;20260;-69
2022/03/11 09:03:22;;;;;;;0.50;0.50;;;24.60;26.10;;;;;;5052875;28;20163;-69
2022/03/11 09:05:48;;;;;;;0.70;0.70;;;25.20;25.00;;;;;;5052706;28;20198;-69
2022/03/11 09:08:14;;;;;;;0.83;0.83;;;26.00;24.50;;;;;;5053223;28;20581;-68
2022/03/11 09:10:39;;;;;;;0.40;0.40;;;26.50;23.90;;;;;;5056321;28;20672;-69
2022/03/11 09:13:05;;;;;;;0.40;0.40;;;26.90;23.80;;;;;;5056450;28;20171;-69
2022/03/11 09:15:31;;;;;;;1.27;1.27;;;27.20;23.30;;;;;;5056185;28;20191;-69
2022/03/11 09:17:57;;;;;;;2.50;1.23;;;27.70;23.10;;;;;;5056451;28;20283;-68
2022/03/11 09:20:23;;;;;;;1.23;1.23;;;28.10;22.40;;;;;;5056036;28;20379;-68
2022/03/11 09:22:49;;;;;;;0.53;0.53;;;28.30;22.50;;;;;;5056161;28;20984;-68
2022/03/11 09:25:18;;;;;;;0.63;0.63;;;28.40;22.70;;;;;;5056308;28;20428;-70
2022/03/11 09:27:45;;;;;;;0.50;0.50;;;28.40;22.50;;;;;;5056012;28;20404;-69
2022/03/11 09:30:12;;;;;;;0.70;0.70;;;28.40;23.20;;;;;;5056023;28;20747;-69
2022/03/11 09:32:38;;;;;;;1.90;1.70;;;28.80;22.80;;;;;;5055993;28;20429;-69
2022/03/11 09:35:06;;;;;;;0.30;0.30;;;28.30;22.40;;;;;;5055799;28;20848;-69
2022/03/11 09:37:31;;;;;;;1.30;1.30;;;27.20;23.40;;;;;;5056001;28;20396;-69
2022/03/11 09:39:57;;;;;;;0.33;0.33;;;26.40;23.70;;;;;;5055840;28;20417;-70
2022/03/11 09:42:23;;;;;;;0.40;0.40;;;26.00;24.00;;;;;;5055748;28;20200;-70
2022/03/11 09:44:54;;;;;;;0.70;0.70;;;26.20;24.20;;;;;;5055645;28;20208;-69
2022/03/11 09:47:20;;;;;;;3.10;2.90;;;26.00;24.50;;;;;;5055768;28;20170;-68
2022/03/11 09:49:50;;;;;;;2.10;1.33;;;26.00;24.50;;;;;;5055700;28;20394;-69
2022/03/11 09:52:17;;;;;;;2.00;0.80;;;25.60;24.20;;;;;;5055606;28;20961;-68
2022/03/11 09:54:45;;;;;;;2.20;1.67;;;25.30;24.70;;;;;;5055646;28;20527;-69
2022/03/11 09:57:18;;;;;;;1.33;1.33;;;25.10;24.10;;;;;;5055428;28;20772;-69
2022/03/11 09:59:44;;;;;;;1.43;1.33;;;24.40;24.30;;;;;;5055384;28;20394;-69
2022/03/11 10:02:15;;;;;;;0.80;0.80;;;24.60;24.60;;;;;;5055179;28;20463;-69
2022/03/11 10:04:49;;;;;;;3.97;3.67;;;24.90;24.20;;;;;;5055357;28;20431;-69
2022/03/11 10:07:41;;;;;;;0.60;0.60;;;24.40;24.40;;;;;;5055300;28;20385;-69
2022/03/11 10:10:19;;;;;;;0.63;0.63;;;25.90;23.80;;;;;;5054817;28;20412;-68
2022/03/11 10:12:46;;;;;;;0.53;0.53;;;25.90;23.30;;;;;;5055500;28;20419;-70
2022/03/11 10:15:14;;;;;;;1.80;1.70;;;25.90;23.50;;;;;;5055119;28;20511;-69
2022/03/11 10:17:42;;;;;;;0.57;0.57;;;26.20;22.80;;;;;;5055242;28;20487;-69
2022/03/11 10:20:13;;;;;;;1.27;1.17;;;25.70;23.20;;;;;;5054894;28;20405;-69
2022/03/11 10:22:41;;;;;;;0.50;0.50;;;25.70;23.10;;;;;;5055197;28;20977;-69
2022/03/11 10:25:16;;;;;;;1.80;1.70;;;25.40;23.60;;;;;;5054904;28;20504;-69
2022/03/11 10:28:05;;;;;;;1.93;1.17;;;25.90;23.00;;;;;;5055165;28;20426;-70
2022/03/11 10:30:34;;;;;;;1.27;0.93;;;25.90;22.70;;;;;;5054987;28;20389;-69
2022/03/11 10:33:02;;;;;;;2.33;2.23;;;24.40;23.00;;;;;;5055029;28;20408;-69
2022/03/11 10:35:31;;;;;;;0.40;0.40;;;24.30;23.40;;;;;;5054928;28;20957;-68
2022/03/11 10:38:06;;;;;;;1.30;1.20;;;24.70;23.30;;;;;;5053831;28;20767;-69
2022/03/11 10:40:33;;;;;;;8.37;1.80;;;23.90;23.20;;;;;;5053418;28;20466;-70
2022/03/11 10:43:09;;;;;;;1.03;1.03;;;23.70;23.60;;;;;;5054759;28;20654;-69
2022/03/11 10:45:57;;;;;;;0.93;0.60;;;23.80;23.60;;;;;;5054478;28;20466;-69
2022/03/11 10:48:47;;;;;;;0.30;0.30;;;23.80;23.90;;;;;;5054045;28;20428;-69
2022/03/11 10:51:20;;;;;;;0.73;0.73;;;23.60;23.20;;;;;;5054417;28;20495;-69
2022/03/11 10:53:51;;;;;;;0.87;0.87;;;23.70;23.70;;;;;;5054366;28;20390;-69
2022/03/11 10:56:35;;;;;;;0.60;0.60;;;22.90;24.40;;;;;;5054464;28;20859;-68
2022/03/11 10:59:06;;;;;;;0.30;0.30;;;23.10;24.50;;;;;;5054367;28;20413;-69
2022/03/11 11:01:40;;;;;;;0.93;0.90;;;23.20;24.50;;;;;;5053972;28;20463;-69
2022/03/11 11:04:09;;;;;;;0.40;0.40;;;23.00;25.10;;;;;;5054311;28;20423;-70
2022/03/11 11:06:35;;;;;;;2.27;0.90;;;23.40;25.30;;;;;;5053582;28;20404;-68
2022/03/11 11:09:06;;;;;;;2.03;1.90;;;23.90;25.90;;;;;;5054218;28;20892;-70
2022/03/11 11:11:33;;;;;;;0.40;0.40;;;23.40;24.70;;;;;;5053902;28;20412;-70
2022/03/11 11:14:00;;;;;;;0.30;0.30;;;22.70;25.20;;;;;;5054394;28;20429;-68
2022/03/11 11:16:28;;;;;;;1.27;0.50;;;21.10;26.20;;;;;;5054016;28;20400;-69
2022/03/11 11:18:59;;;;;;;0.57;0.57;;;20.30;27.70;;;;;;5054140;28;20439;-67
2022/03/11 11:21:26;;;;;;;0.50;0.50;;;18.60;28.00;;;;;;5053921;28;20546;-67
2022/03/11 11:23:57;;;;;;;4.57;2.43;;;17.70;30.50;;;;;;5053963;28;20421;-67
2022/03/11 11:26:25;;;;;;;0.30;0.30;;;17.60;30.30;;;;;;5053828;28;20778;-68
2022/03/11 11:28:54;;;;;;;1.43;1.23;;;17.00;30.00;;;;;;5053983;28;20488;-70
2022/03/11 11:31:20;;;;;;;1.47;1.37;;;16.30;31.40;;;;;;5053363;28;20409;-69
2022/03/11 11:33:47;;;;;;;0.60;0.60;;;16.20;31.60;;;;;;5053696;28;20905;-68
2022/03/11 11:36:13;;;;;;;0.30;0.30;;;15.80;31.40;;;;;;5053689;28;20935;-69
2022/03/11 11:38:43;;;;;;;1.07;0.80;;;14.70;31.60;;;;;;5053746;28;20415;-69
2022/03/11 11:41:18;;;;;;;0.40;0.40;;;14.20;32.40;;;;;;5053330;28;20448;-69
2022/03/11 11:44:00;;;;;;;0.97;0.97;;;14.20;33.70;;;;;;5053691;28;20400;-69
2022/03/11 11:46:29;;;;;;;0.40;0.40;;;14.30;33.00;;;;;;5053468;28;20973;-70
2022/03/11 11:48:58;;;;;;;0.50;0.50;;;14.20;32.80;;;;;;5053601;28;20458;-69
2022/03/11 11:51:36;;;;;;;0.57;0.57;;;14.40;32.90;;;;;;5053313;28;20417;-68
2022/03/11 11:54:11;;;;;;;0.40;0.40;;;14.40;32.40;;;;;;5053586;28;20431;-69
2022/03/11 11:56:38;;;;;;;1.57;1.57;;;14.90;33.30;;;;;;5053418;28;20389;-70
2022/03/11 11:59:15;;;;;;;0.40;0.40;;;14.70;32.60;;;;;;5053466;28;20409;-69
2022/03/11 12:01:42;;;;;;;0.30;0.30;;;14.60;31.70;;;;;;5052982;28;20455;-70
2022/03/11 12:04:24;;;;;;;0.83;0.83;;;14.10;31.30;;;;;;5053226;28;20847;-70
2022/03/11 12:07:14;;;;;;;0.40;0.40;;;14.00;32.50;;;;;;5053320;28;20406;-69
2022/03/11 12:09:40;;;;;;;0.30;0.30;;;13.70;32.10;;;;;;5053488;28;20416;-68
2022/03/11 12:12:32;;;;;;;0.40;0.40;;;13.80;31.60;;;;;;5053224;28;20401;-69
2022/03/11 12:15:01;;;;;;;0.50;0.50;;;14.30;31.80;;;;;;5053101;28;20198;-68
2022/03/11 12:17:38;;;;;;;1.70;1.60;;;14.60;31.40;;;;;;5053434;28;20437;-70
2022/03/11 12:20:22;;;;;;;1.70;1.70;;;14.30;30.40;;;;;;5053133;28;20401;-69
2022/03/11 12:23:14;;;;;;;0.40;0.40;;;13.90;30.60;;;;;;5053266;28;20448;-68
2022/03/11 12:26:02;;;;;;;0.67;0.67;;;14.10;33.20;;;;;;5053159;28;20793;-69
2022/03/11 12:28:27;;;;;;;0.50;0.50;;;14.40;30.90;;;;;;5053375;28;20486;-69
2022/03/11 12:30:59;;;;;;;0.60;0.60;;;14.30;29.40;;;;;;5052979;28;20467;-68
2022/03/11 12:33:34;;;;;;;0.53;0.53;;;13.70;28.80;;;;;;5053303;28;20177;-69
2022/03/11 12:36:03;;;;;;;0.30;0.30;;;13.40;28.70;;;;;;5053221;28;20406;-69
2022/03/11 12:38:34;;;;;;;3.13;2.87;;;13.20;29.10;;;;;;5053145;28;20404;-69
2022/03/11 12:41:14;;;;;;;0.83;0.83;;;13.20;28.80;;;;;;5052940;28;20423;-69
2022/03/11 12:43:43;;;;;;;0.40;0.40;;;13.20;28.70;;;;;;5054021;28;20408;-68
2022/03/11 12:46:10;;;;;;;0.40;0.40;;;13.20;28.50;;;;;;5056854;28;20413;-68
2022/03/11 12:48:38;;;;;;;0.50;0.50;;;13.60;30.00;;;;;;5056851;28;20404;-69
2022/03/11 12:51:09;;;;;;;0.40;0.40;;;13.10;27.50;;;;;;5056512;28;20408;-69
2022/03/11 12:53:37;;;;;;;1.63;1.60;;;12.90;28.10;;;;;;5056795;28;20411;-69
2022/03/11 12:56:03;;;;;;;0.60;0.60;;;13.10;28.30;;;;;;5056608;28;20408;-68